Time;durP1;ratioP1;P1;durP2;ratioP2;P2;SDS_P1;SDS_P2;PMS_P1;PMS_P2;Temp;Humidity;BMP_temperature;BMP_pressure;BME280_temperature;BME280_humidity;BME280_pressure;Samples;Min_cycle;Max_cycle;Signal;HPM_P1;HPM_P2
2022/04/19 00:00:53;;;;;;;11.02;8.73;;;7.80;63.20;;;;;;5046761;28;20049;-68
2022/04/19 00:03:19;;;;;;;10.50;8.27;;;7.70;63.00;;;;;;5042752;28;20041;-68
2022/04/19 00:05:45;;;;;;;11.07;7.78;;;7.70;63.10;;;;;;5019623;28;20068;-68
2022/04/19 00:08:13;;;;;;;9.75;7.57;;;7.70;62.90;;;;;;5021042;28;20255;-68
2022/04/19 00:10:40;;;;;;;10.52;7.28;;;7.70;62.70;;;;;;5032843;28;20839;-68
2022/04/19 00:13:08;;;;;;;11.13;7.85;;;7.70;62.70;;;;;;5029482;28;20064;-68
2022/04/19 00:15:34;;;;;;;9.95;7.20;;;7.80;62.50;;;;;;5044377;28;20448;-68
2022/04/19 00:18:02;;;;;;;13.50;7.90;;;7.80;62.30;;;;;;5035069;28;20048;-68
2022/04/19 00:20:28;;;;;;;9.00;7.20;;;7.80;62.10;;;;;;5023924;28;20052;-68
2022/04/19 00:22:55;;;;;;;10.45;6.68;;;7.80;62.10;;;;;;5031840;28;20430;-68
2022/04/19 00:25:21;;;;;;;10.15;7.63;;;7.80;61.90;;;;;;5046126;28;20037;-68
2022/04/19 00:27:46;;;;;;;11.33;7.57;;;7.70;62.10;;;;;;5026842;28;20055;-68
2022/04/19 00:30:13;;;;;;;9.50;7.20;;;7.70;61.90;;;;;;5032949;28;20036;-68
2022/04/19 00:32:39;;;;;;;10.90;7.65;;;7.70;61.80;;;;;;5009696;28;20033;-68
2022/04/19 00:35:07;;;;;;;10.65;7.47;;;7.60;62.00;;;;;;5040122;28;20109;-68
2022/04/19 00:37:34;;;;;;;12.80;7.75;;;7.60;62.00;;;;;;5013585;28;20042;-68
2022/04/19 00:40:01;;;;;;;11.57;7.75;;;7.50;62.00;;;;;;5035623;28;20536;-68
2022/04/19 00:42:31;;;;;;;12.23;7.88;;;7.50;62.00;;;;;;5025793;28;20041;-68
2022/04/19 00:44:58;;;;;;;9.32;7.20;;;7.40;62.10;;;;;;5030040;28;20041;-68
2022/04/19 00:47:24;;;;;;;12.48;8.00;;;7.30;62.40;;;;;;5019048;28;20628;-68
2022/04/19 00:49:51;;;;;;;13.93;8.60;;;7.20;62.30;;;;;;5024806;28;20039;-69
2022/04/19 00:52:18;;;;;;;14.43;8.55;;;7.20;62.60;;;;;;5022260;28;20037;-68
2022/04/19 00:54:44;;;;;;;13.02;8.98;;;7.10;62.40;;;;;;5019390;28;20537;-68
2022/04/19 00:57:11;;;;;;;15.27;10.02;;;7.10;62.50;;;;;;5019482;28;20064;-68
2022/04/19 00:59:37;;;;;;;15.10;9.02;;;7.00;62.50;;;;;;5042714;28;20048;-68
2022/04/19 01:02:03;;;;;;;13.73;9.03;;;7.00;62.50;;;;;;5023114;28;20033;-68
2022/04/19 01:04:29;;;;;;;15.35;9.70;;;6.90;62.50;;;;;;5044867;28;20048;-68
2022/04/19 01:06:57;;;;;;;14.05;9.13;;;6.90;62.60;;;;;;5045771;28;20087;-68
2022/04/19 01:09:23;;;;;;;16.05;9.90;;;6.90;62.70;;;;;;5041133;28;20665;-68
2022/04/19 01:14:37;;;;;;;15.02;10.00;;;6.80;62.90;;;;;;5034756;28;20045;-68
2022/04/19 01:17:07;;;;;;;19.50;10.82;;;6.70;63.10;;;;;;5041692;28;20092;-68
2022/04/19 01:19:35;;;;;;;16.83;11.43;;;6.70;63.20;;;;;;5019904;28;20413;-67
2022/04/19 01:22:01;;;;;;;20.92;12.25;;;6.70;63.60;;;;;;5033654;28;20464;-67
2022/04/19 01:24:27;;;;;;;19.57;11.67;;;6.70;63.60;;;;;;5037772;28;20049;-68
2022/04/19 01:26:54;;;;;;;19.00;12.43;;;6.60;63.80;;;;;;5039336;28;20041;-68
2022/04/19 01:29:20;;;;;;;15.55;10.98;;;6.60;64.10;;;;;;5044265;28;20488;-68
2022/04/19 01:31:47;;;;;;;14.77;11.40;;;6.50;64.20;;;;;;5028698;28;20048;-68
2022/04/19 01:34:13;;;;;;;16.75;11.15;;;6.50;64.30;;;;;;5026213;28;20116;-68
2022/04/19 01:36:39;;;;;;;15.63;11.40;;;6.50;64.50;;;;;;5024628;28;20160;-68
2022/04/19 01:39:07;;;;;;;18.63;12.07;;;6.50;64.50;;;;;;5041821;28;20553;-68
2022/04/19 01:41:33;;;;;;;16.90;11.38;;;6.40;64.80;;;;;;5021396;28;20109;-68
2022/04/19 01:43:59;;;;;;;18.23;12.45;;;6.40;64.80;;;;;;5034012;28;20049;-68
2022/04/19 01:46:26;;;;;;;16.48;10.80;;;6.40;64.80;;;;;;5036546;28;20055;-68
2022/04/19 01:48:54;;;;;;;16.40;9.63;;;6.30;65.10;;;;;;5026691;28;20045;-68
2022/04/19 01:51:21;;;;;;;16.42;9.85;;;6.30;65.10;;;;;;5039165;28;20045;-68
2022/04/19 01:53:48;;;;;;;16.45;10.25;;;6.30;65.30;;;;;;5043215;28;20450;-68
2022/04/19 01:56:14;;;;;;;13.65;9.20;;;6.30;65.20;;;;;;5016989;28;20084;-68
2022/04/19 01:58:40;;;;;;;15.53;10.53;;;6.30;65.20;;;;;;5037179;28;20079;-67
2022/04/19 02:01:06;;;;;;;15.43;9.83;;;6.30;65.10;;;;;;5026695;28;20070;-68
2022/04/19 02:03:31;;;;;;;14.33;9.73;;;6.30;65.20;;;;;;5028395;28;20087;-67
2022/04/19 02:05:57;;;;;;;15.13;9.70;;;6.30;65.20;;;;;;5028021;28;20049;-68
2022/04/19 02:08:23;;;;;;;14.77;9.67;;;6.20;65.20;;;;;;5027979;28;20033;-68
2022/04/19 02:10:48;;;;;;;13.70;9.20;;;6.20;65.00;;;;;;5019605;28;20037;-68
2022/04/19 02:13:14;;;;;;;12.37;9.23;;;6.20;65.10;;;;;;5042018;28;20049;-68
2022/04/19 02:15:40;;;;;;;14.00;9.37;;;6.20;64.90;;;;;;5044689;28;20076;-68
2022/04/19 02:18:06;;;;;;;13.33;8.70;;;6.20;65.10;;;;;;5021165;28;20112;-68
2022/04/19 02:20:32;;;;;;;12.37;8.53;;;6.20;65.10;;;;;;5023621;28;20577;-68
2022/04/19 02:22:57;;;;;;;11.70;8.37;;;6.20;65.00;;;;;;5043735;28;20391;-68
2022/04/19 02:25:24;;;;;;;12.73;8.00;;;6.10;65.20;;;;;;5027775;28;20037;-68
2022/04/19 02:27:50;;;;;;;12.38;8.43;;;6.10;65.30;;;;;;5022590;28;20054;-68
2022/04/19 02:30:17;;;;;;;14.70;8.77;;;6.10;65.30;;;;;;5040844;28;20045;-68
2022/04/19 02:32:50;;;;;;;11.63;8.35;;;6.10;65.30;;;;;;5035315;28;20124;-68
2022/04/19 02:35:18;;;;;;;12.00;8.30;;;6.10;65.40;;;;;;5036951;28;20046;-68
2022/04/19 02:37:48;;;;;;;12.57;8.18;;;6.10;65.50;;;;;;5039996;28;20845;-68
2022/04/19 02:40:15;;;;;;;13.85;9.32;;;6.00;65.70;;;;;;5038367;28;20037;-68
2022/04/19 02:42:41;;;;;;;12.23;8.90;;;6.00;65.80;;;;;;5038936;28;20064;-68
2022/04/19 02:45:07;;;;;;;14.07;9.20;;;6.00;65.90;;;;;;5045586;28;20399;-68
2022/04/19 02:47:32;;;;;;;15.82;10.00;;;6.00;66.00;;;;;;5029532;28;20037;-68
2022/04/19 02:49:58;;;;;;;15.97;9.47;;;5.90;66.20;;;;;;5045583;28;20436;-68
2022/04/19 02:52:24;;;;;;;14.07;9.98;;;5.90;66.30;;;;;;5012579;28;20042;-68
2022/04/19 02:54:50;;;;;;;12.70;9.57;;;5.90;66.50;;;;;;5022457;28;20464;-68
2022/04/19 02:57:16;;;;;;;16.27;9.53;;;5.90;66.70;;;;;;5042497;28;20053;-68
2022/04/19 02:59:44;;;;;;;15.17;9.43;;;5.80;66.70;;;;;;5042808;28;20126;-68
2022/04/19 03:02:10;;;;;;;13.55;9.32;;;5.80;66.70;;;;;;5028982;28;20648;-68
2022/04/19 03:04:35;;;;;;;13.63;9.17;;;5.80;66.90;;;;;;5029395;28;20044;-68
2022/04/19 03:07:01;;;;;;;14.73;9.30;;;5.80;66.90;;;;;;5046458;28;20040;-68
2022/04/19 03:09:27;;;;;;;13.53;9.10;;;5.80;66.80;;;;;;5027744;28;20042;-68
2022/04/19 03:11:53;;;;;;;12.47;9.23;;;5.80;67.00;;;;;;5047395;28;20079;-68
2022/04/19 03:14:19;;;;;;;13.73;9.43;;;5.70;66.90;;;;;;5042043;28;20037;-67
2022/04/19 03:16:45;;;;;;;13.95;9.05;;;5.70;67.00;;;;;;5023871;28;20100;-68
2022/04/19 03:19:13;;;;;;;13.83;8.80;;;5.70;67.00;;;;;;5031932;28;20095;-68
2022/04/19 03:21:40;;;;;;;12.40;8.90;;;5.70;67.00;;;;;;5025921;28;20045;-68
2022/04/19 03:29:35;;;;;;;14.35;9.00;;;5.80;66.80;;;;;;5021982;28;20146;-68
2022/04/19 03:32:00;;;;;;;13.82;8.27;;;5.80;66.70;;;;;;5040996;28;20033;-67
2022/04/19 03:34:26;;;;;;;15.97;8.50;;;5.80;66.60;;;;;;5047696;28;20037;-67
2022/04/19 03:36:52;;;;;;;12.30;8.43;;;5.80;66.60;;;;;;5026250;28;20045;-67
2022/04/19 03:39:18;;;;;;;12.73;8.77;;;5.80;66.70;;;;;;5044530;28;20120;-68
2022/04/19 03:41:44;;;;;;;13.93;9.10;;;5.80;66.60;;;;;;5043099;28;20077;-68
2022/04/19 03:44:11;;;;;;;11.90;9.05;;;5.80;66.80;;;;;;5030471;28;20123;-67
2022/04/19 03:47:07;;;;;;;15.02;9.65;;;5.80;66.90;;;;;;5028627;28;20140;-68
2022/04/19 03:49:26;;;;;;;15.23;9.95;;;5.70;67.00;;;;;;5032780;28;20448;-68
2022/04/19 03:51:51;;;;;;;13.23;10.50;;;5.70;67.20;;;;;;5026343;28;20567;-67
2022/04/19 03:54:17;;;;;;;16.50;10.30;;;5.70;67.40;;;;;;5003241;28;20076;-67
2022/04/19 03:56:43;;;;;;;17.67;11.33;;;5.70;67.40;;;;;;5027561;28;20061;-68
2022/04/19 03:59:12;;;;;;;16.65;10.32;;;5.70;67.30;;;;;;5045926;28;20147;-67
2022/04/19 04:01:38;;;;;;;16.85;11.65;;;5.70;67.40;;;;;;5046701;28;20048;-67
2022/04/19 04:04:04;;;;;;;17.63;10.57;;;5.70;67.50;;;;;;5033724;28;20049;-68
2022/04/19 04:06:30;;;;;;;13.18;9.48;;;5.70;67.40;;;;;;5030356;28;20033;-68
2022/04/19 04:08:56;;;;;;;13.57;9.40;;;5.70;67.20;;;;;;5047914;28;20044;-67
2022/04/19 04:11:22;;;;;;;14.07;9.43;;;5.70;67.30;;;;;;5044758;28;20048;-67
2022/04/19 04:13:47;;;;;;;13.77;8.67;;;5.70;67.10;;;;;;5035601;28;20075;-68
2022/04/19 04:16:13;;;;;;;14.37;9.77;;;5.70;67.00;;;;;;5044459;28;20081;-68
2022/04/19 04:18:41;;;;;;;12.90;9.20;;;5.80;66.50;;;;;;5041053;28;20048;-68
2022/04/19 04:21:07;;;;;;;12.35;8.65;;;5.90;66.10;;;;;;5030292;28;20736;-68
2022/04/19 04:23:33;;;;;;;12.33;8.67;;;5.90;65.80;;;;;;5010223;28;20037;-68
2022/04/19 04:26:02;;;;;;;14.13;9.00;;;6.00;66.10;;;;;;4997369;28;20512;-68
2022/04/19 04:28:27;;;;;;;13.52;9.07;;;6.00;65.80;;;;;;5062282;28;20040;-68
2022/04/19 04:30:53;;;;;;;13.10;8.97;;;6.00;65.60;;;;;;5017614;28;20044;-68
2022/04/19 04:33:19;;;;;;;13.60;9.50;;;6.00;65.40;;;;;;5014532;28;20041;-68
2022/04/19 04:35:44;;;;;;;12.90;9.63;;;6.10;65.40;;;;;;5042955;28;20136;-68
2022/04/19 04:38:10;;;;;;;14.63;9.80;;;6.10;65.30;;;;;;5044102;28;20045;-68
2022/04/19 04:40:36;;;;;;;14.43;9.40;;;6.20;65.50;;;;;;5038909;28;20821;-68
2022/04/19 04:43:02;;;;;;;13.30;9.33;;;6.20;65.90;;;;;;5028575;28;20425;-68
2022/04/19 04:45:27;;;;;;;14.77;9.83;;;6.30;65.60;;;;;;5030202;28;20056;-68
2022/04/19 04:50:37;;;;;;;13.38;9.63;;;6.30;65.60;;;;;;5042140;28;20041;-68
2022/04/19 04:53:03;;;;;;;14.77;10.13;;;6.30;65.70;;;;;;5039078;28;20041;-68
2022/04/19 04:55:29;;;;;;;17.13;10.73;;;6.30;65.70;;;;;;5021302;28;20123;-68
2022/04/19 04:57:58;;;;;;;15.17;11.20;;;6.30;65.80;;;;;;5045057;28;20121;-68
2022/04/19 05:00:27;;;;;;;14.35;10.10;;;6.30;66.10;;;;;;5042207;28;20076;-68
2022/04/19 05:02:53;;;;;;;16.25;10.85;;;6.40;65.80;;;;;;5035698;28;20117;-68
2022/04/19 05:05:19;;;;;;;17.33;10.50;;;6.40;65.70;;;;;;5008614;28;20049;-68
2022/04/19 05:07:45;;;;;;;14.60;10.33;;;6.50;65.50;;;;;;5043782;28;20075;-68
2022/04/19 05:10:11;;;;;;;17.48;11.48;;;6.50;65.40;;;;;;5000855;28;20098;-68
2022/04/19 05:12:37;;;;;;;14.90;10.60;;;6.60;65.40;;;;;;5024831;28;20048;-68
2022/04/19 05:15:04;;;;;;;15.30;10.27;;;6.60;65.50;;;;;;5045553;28;20183;-68
2022/04/19 05:17:29;;;;;;;16.23;10.30;;;6.60;65.80;;;;;;5025820;28;20143;-68
2022/04/19 05:19:56;;;;;;;16.17;10.03;;;6.70;65.70;;;;;;5026176;28;20159;-68
2022/04/19 05:22:22;;;;;;;17.13;10.52;;;6.70;65.90;;;;;;5034867;28;20041;-68
2022/04/19 05:24:48;;;;;;;17.48;10.55;;;6.70;65.80;;;;;;5044387;28;20098;-68
2022/04/19 05:27:14;;;;;;;15.00;10.00;;;6.80;65.80;;;;;;5027682;28;20449;-68
2022/04/19 05:29:39;;;;;;;14.67;9.57;;;6.80;65.90;;;;;;5036995;28;20140;-68
2022/04/19 05:32:05;;;;;;;16.10;10.73;;;6.90;65.80;;;;;;5025012;28;20036;-68
2022/04/19 05:34:31;;;;;;;15.00;10.35;;;6.90;66.10;;;;;;5006558;28;20103;-68
2022/04/19 05:36:57;;;;;;;15.17;9.93;;;7.00;66.00;;;;;;5032449;28;20041;-68
2022/04/19 05:39:23;;;;;;;14.80;10.33;;;7.10;66.10;;;;;;5023442;28;20102;-68
2022/04/19 05:41:49;;;;;;;16.43;10.83;;;7.20;65.80;;;;;;5028204;28;20497;-68
2022/04/19 05:44:15;;;;;;;13.93;9.95;;;7.30;66.10;;;;;;5019094;28;20068;-68
2022/04/19 05:46:40;;;;;;;16.23;10.90;;;7.40;65.90;;;;;;5020144;28;20103;-68
2022/04/19 05:49:06;;;;;;;15.60;10.17;;;7.40;65.80;;;;;;5022273;28;20037;-68
2022/04/19 05:51:33;;;;;;;15.23;9.50;;;7.50;65.80;;;;;;5043885;28;20033;-68
2022/04/19 05:53:59;;;;;;;15.10;10.50;;;7.60;65.60;;;;;;5043020;28;20440;-68
2022/04/19 05:56:24;;;;;;;14.10;10.27;;;7.70;65.50;;;;;;5027583;28;20044;-68
2022/04/19 05:58:50;;;;;;;14.87;10.03;;;7.70;65.40;;;;;;5028466;28;20090;-68
2022/04/19 06:01:16;;;;;;;18.87;11.13;;;7.80;65.30;;;;;;5044570;28;20041;-68
2022/04/19 06:06:25;;;;;;;14.80;10.52;;;7.90;65.20;;;;;;5017877;28;20053;-68
2022/04/19 06:08:51;;;;;;;17.00;11.10;;;8.00;65.10;;;;;;5029781;28;20029;-68
2022/04/19 06:11:17;;;;;;;17.43;10.70;;;8.10;65.00;;;;;;5011687;28;20116;-68
2022/04/19 06:13:43;;;;;;;17.97;10.90;;;8.20;64.90;;;;;;5052270;28;20041;-68
2022/04/19 06:16:09;;;;;;;15.67;10.63;;;8.30;65.10;;;;;;5022447;28;20864;-68
2022/04/19 06:18:35;;;;;;;19.15;10.75;;;8.40;64.90;;;;;;5046485;28;20047;-68
2022/04/19 06:21:03;;;;;;;13.93;10.15;;;8.50;64.80;;;;;;5050171;28;20080;-68
2022/04/19 06:23:29;;;;;;;15.70;11.02;;;8.60;64.70;;;;;;5032402;28;20411;-68
2022/04/19 06:25:54;;;;;;;16.37;10.73;;;8.70;64.70;;;;;;5044499;28;20056;-68
2022/04/19 06:28:20;;;;;;;14.67;9.70;;;8.80;64.40;;;;;;5019256;28;20041;-68
2022/04/19 06:30:46;;;;;;;15.10;10.43;;;8.90;63.90;;;;;;5046636;28;20041;-68
2022/04/19 06:33:12;;;;;;;16.67;10.77;;;9.00;64.10;;;;;;5028792;28;20045;-68
2022/04/19 06:35:37;;;;;;;17.03;10.97;;;9.10;64.00;;;;;;5037932;28;20098;-68
2022/04/19 06:38:03;;;;;;;16.77;10.70;;;9.20;64.40;;;;;;5046505;28;20049;-68
2022/04/19 06:40:30;;;;;;;15.10;9.83;;;9.40;64.20;;;;;;5046978;28;20049;-68
2022/04/19 06:42:57;;;;;;;16.67;10.98;;;9.60;63.60;;;;;;5023951;28;20049;-68
2022/04/19 06:45:23;;;;;;;13.82;10.77;;;9.80;63.40;;;;;;5047903;28;20084;-68
2022/04/19 06:48:01;;;;;;;14.13;10.60;;;9.90;63.00;;;;;;5016416;28;20068;-68
2022/04/19 06:50:27;;;;;;;14.52;9.82;;;10.10;61.80;;;;;;5043875;28;20041;-68
2022/04/19 06:52:53;;;;;;;14.70;10.02;;;10.20;61.40;;;;;;5031165;28;20083;-68
2022/04/19 06:55:20;;;;;;;14.80;10.97;;;10.30;61.40;;;;;;5010739;28;20661;-68
2022/04/19 06:57:47;;;;;;;15.00;9.98;;;10.40;61.00;;;;;;5031588;28;20045;-68
2022/04/19 07:00:13;;;;;;;14.63;10.55;;;10.50;60.90;;;;;;5044477;28;20051;-68
2022/04/19 07:02:39;;;;;;;14.63;9.90;;;10.60;60.50;;;;;;5045148;28;20049;-68
2022/04/19 07:05:05;;;;;;;14.77;10.90;;;10.70;59.80;;;;;;5048993;28;20363;-68
2022/04/19 07:07:32;;;;;;;14.50;10.02;;;10.80;59.80;;;;;;5049160;28;20041;-68
2022/04/19 07:09:59;;;;;;;17.98;10.95;;;10.80;60.00;;;;;;5027846;28;20033;-68
2022/04/19 07:12:24;;;;;;;14.35;10.07;;;10.90;60.50;;;;;;5043423;28;20552;-68
2022/04/19 07:14:50;;;;;;;13.70;9.90;;;11.00;60.70;;;;;;5013641;28;20045;-68
2022/04/19 07:17:16;;;;;;;12.50;9.90;;;11.20;60.70;;;;;;5043714;28;20049;-68
2022/04/19 07:28:02;;;;;;;15.50;10.32;;;11.70;57.80;;;;;;5032817;28;20623;-69
2022/04/19 07:30:29;;;;;;;20.10;10.15;;;11.70;57.50;;;;;;5029431;28;20049;-69
2022/04/19 07:32:55;;;;;;;15.07;9.10;;;11.80;57.90;;;;;;5042165;28;20041;-69
2022/04/19 07:35:21;;;;;;;13.25;9.63;;;11.90;57.90;;;;;;5041349;28;20041;-69
2022/04/19 07:37:47;;;;;;;13.00;9.17;;;12.00;57.70;;;;;;5046237;28;20037;-69
2022/04/19 07:40:12;;;;;;;13.63;9.70;;;12.10;57.10;;;;;;5027121;28;20438;-69
2022/04/19 07:42:38;;;;;;;14.77;9.73;;;12.20;57.50;;;;;;5022340;28;20548;-69
2022/04/19 07:45:05;;;;;;;14.27;9.20;;;12.30;56.70;;;;;;5034308;28;20053;-69
2022/04/19 07:47:33;;;;;;;14.27;9.75;;;12.40;56.40;;;;;;5041612;28;20102;-69
2022/04/19 07:49:59;;;;;;;12.98;9.32;;;12.40;56.40;;;;;;5037678;28;20072;-69
2022/04/19 07:52:25;;;;;;;14.07;9.40;;;12.60;56.20;;;;;;5040027;28;20049;-69
2022/04/19 07:54:51;;;;;;;14.80;9.73;;;12.70;56.50;;;;;;5031071;28;20041;-69
2022/04/19 07:57:23;;;;;;;16.83;10.40;;;12.80;56.20;;;;;;5042939;28;20056;-69
2022/04/19 07:59:53;;;;;;;14.05;9.48;;;12.90;55.70;;;;;;5039869;28;20068;-69
2022/04/19 08:02:19;;;;;;;16.88;9.95;;;13.00;55.80;;;;;;5018641;28;20120;-69
2022/04/19 08:04:45;;;;;;;13.30;9.20;;;13.10;55.20;;;;;;5022547;28;20455;-69
2022/04/19 08:07:11;;;;;;;13.25;9.43;;;13.20;54.40;;;;;;5046909;28;20087;-69
2022/04/19 08:09:37;;;;;;;14.30;9.20;;;13.30;54.30;;;;;;5021829;28;20069;-69
2022/04/19 08:12:03;;;;;;;13.60;9.10;;;13.40;53.30;;;;;;5039899;28;20398;-69
2022/04/19 08:14:28;;;;;;;14.40;9.40;;;13.40;53.40;;;;;;5035396;28;20052;-69
2022/04/19 08:16:54;;;;;;;14.20;9.53;;;13.50;53.50;;;;;;5013902;28;20061;-70
2022/04/19 08:19:20;;;;;;;12.60;8.90;;;13.50;52.80;;;;;;5042098;28;20536;-70
2022/04/19 08:21:46;;;;;;;13.57;8.57;;;13.60;53.10;;;;;;5046505;28;20080;-70
2022/04/19 08:24:11;;;;;;;13.75;8.82;;;13.80;52.90;;;;;;5012729;28;20071;-69
2022/04/19 08:26:37;;;;;;;13.13;8.87;;;13.90;52.30;;;;;;5029508;28;20044;-69
2022/04/19 08:29:03;;;;;;;13.27;8.83;;;14.00;51.80;;;;;;5023381;28;20064;-69
2022/04/19 08:31:28;;;;;;;12.37;8.20;;;14.10;52.60;;;;;;5040982;28;20111;-69
2022/04/19 08:33:54;;;;;;;12.07;8.30;;;14.30;52.30;;;;;;5040863;28;20810;-70
2022/04/19 08:36:20;;;;;;;12.53;8.57;;;14.30;52.20;;;;;;5022329;28;20041;-70
2022/04/19 08:38:47;;;;;;;12.45;7.53;;;14.40;53.00;;;;;;5019524;28;20124;-70
2022/04/19 08:41:17;;;;;;;12.65;7.10;;;14.60;52.10;;;;;;5030711;28;20521;-70
2022/04/19 08:43:45;;;;;;;10.70;6.80;;;14.70;50.50;;;;;;5038131;28;20557;-70
2022/04/19 08:46:11;;;;;;;10.07;6.87;;;14.70;51.00;;;;;;5017745;28;20052;-70
2022/04/19 08:48:39;;;;;;;11.73;7.23;;;14.80;50.70;;;;;;5037289;28;20383;-70
2022/04/19 08:51:07;;;;;;;11.03;7.07;;;14.90;51.20;;;;;;5018703;28;20672;-70
2022/04/19 08:59:05;;;;;;;7.90;5.50;;;15.10;50.90;;;;;;5037786;28;20783;-70
2022/04/19 09:01:31;;;;;;;9.80;6.10;;;15.20;49.80;;;;;;5038777;28;20315;-70
2022/04/19 09:03:57;;;;;;;10.20;5.87;;;15.30;50.50;;;;;;5019225;28;20287;-70
2022/04/19 09:06:55;;;;;;;10.57;5.67;;;15.40;50.70;;;;;;5024194;28;20316;-70
2022/04/19 09:09:23;;;;;;;6.80;5.27;;;15.50;49.80;;;;;;5052710;28;20608;-70
2022/04/19 09:11:49;;;;;;;7.40;4.63;;;15.60;50.10;;;;;;5018915;28;20342;-70
2022/04/19 09:14:15;;;;;;;8.73;5.43;;;15.70;49.30;;;;;;5018006;28;20847;-70
2022/04/19 09:16:40;;;;;;;6.43;4.10;;;15.80;49.10;;;;;;5029744;28;20304;-70
2022/04/19 09:19:09;;;;;;;8.37;4.47;;;15.90;48.90;;;;;;5004783;28;20056;-70
2022/04/19 09:21:40;;;;;;;9.07;4.80;;;16.00;48.30;;;;;;5019074;28;20453;-70
2022/04/19 09:24:28;;;;;;;7.27;4.70;;;16.00;48.20;;;;;;5030219;28;20290;-70
2022/04/19 09:26:54;;;;;;;8.73;4.77;;;16.10;47.30;;;;;;5041947;28;20307;-70
2022/04/19 09:29:26;;;;;;;7.53;4.97;;;16.20;48.10;;;;;;5044111;28;20283;-70
2022/04/19 09:31:54;;;;;;;7.97;5.03;;;16.30;48.50;;;;;;5036215;28;20311;-70
2022/04/19 09:34:45;;;;;;;7.27;4.47;;;16.40;48.10;;;;;;5044201;28;20706;-70
2022/04/19 09:37:13;;;;;;;7.47;4.70;;;16.50;47.90;;;;;;5037844;28;20769;-70
2022/04/19 09:39:44;;;;;;;8.13;4.90;;;16.60;48.40;;;;;;5044746;28;20287;-70
2022/04/19 09:42:14;;;;;;;7.07;4.27;;;16.70;47.40;;;;;;5029482;28;20314;-70
2022/04/19 09:44:49;;;;;;;8.97;4.63;;;16.90;47.30;;;;;;5021952;28;20291;-70
2022/04/19 09:47:15;;;;;;;7.30;4.50;;;16.90;46.80;;;;;;5027778;28;20382;-70
2022/04/19 09:49:45;;;;;;;8.33;4.57;;;17.00;47.30;;;;;;5014096;28;20118;-71
2022/04/19 09:52:21;;;;;;;6.93;3.73;;;17.10;43.90;;;;;;5015612;28;20490;-71
2022/04/19 09:55:19;;;;;;;7.13;3.90;;;17.10;44.00;;;;;;5036794;28;20279;-70
2022/04/19 09:57:46;;;;;;;7.73;3.40;;;17.10;43.90;;;;;;4994866;28;20315;-70
2022/04/19 10:00:13;;;;;;;10.20;4.30;;;17.20;43.80;;;;;;5041238;28;20283;-70
2022/04/19 10:08:11;;;;;;;6.15;3.45;;;17.30;44.90;;;;;;5034964;28;20633;-71
2022/04/19 10:10:38;;;;;;;4.80;3.00;;;17.50;44.50;;;;;;5000613;28;20040;-71
2022/04/19 10:13:05;;;;;;;5.23;3.20;;;17.50;43.30;;;;;;5026987;28;20275;-71
2022/04/19 10:15:35;;;;;;;5.90;3.27;;;17.50;44.00;;;;;;5046359;28;20283;-70
2022/04/19 10:18:05;;;;;;;4.30;2.87;;;17.60;43.90;;;;;;5043170;28;20782;-70
2022/04/19 10:20:33;;;;;;;6.30;3.17;;;17.60;43.90;;;;;;5047206;28;20291;-70
2022/04/19 10:23:08;;;;;;;4.43;2.97;;;17.60;43.50;;;;;;5012517;28;20288;-70
2022/04/19 10:25:45;;;;;;;6.30;3.00;;;17.70;43.00;;;;;;5045953;28;20424;-70
2022/04/19 10:28:25;;;;;;;5.47;3.30;;;17.60;44.60;;;;;;5020453;28;20032;-70
2022/04/19 10:30:53;;;;;;;3.30;1.87;;;17.70;42.90;;;;;;5025935;28;20280;-71
2022/04/19 10:33:38;;;;;;;4.33;1.50;;;17.60;43.40;;;;;;5021651;28;20282;-71
2022/04/19 10:36:12;;;;;;;1.77;0.90;;;17.70;41.50;;;;;;5027722;28;20283;-71
2022/04/19 10:38:38;;;;;;;2.25;1.15;;;17.70;41.50;;;;;;5046346;28;20318;-72
2022/04/19 10:41:04;;;;;;;2.77;1.10;;;17.70;42.00;;;;;;5040130;28;20227;-71
2022/04/19 10:43:30;;;;;;;2.80;1.40;;;17.70;40.80;;;;;;5025447;28;20037;-71
2022/04/19 10:46:19;;;;;;;3.63;1.50;;;17.70;40.10;;;;;;5017777;28;20435;-71
2022/04/19 10:49:30;;;;;;;1.80;1.20;;;17.70;40.90;;;;;;5033609;28;20287;-70
2022/04/19 10:52:00;;;;;;;2.50;0.93;;;17.80;40.50;;;;;;5034265;28;20906;-70
2022/04/19 10:55:04;;;;;;;2.77;0.90;;;17.80;39.70;;;;;;5041674;28;20278;-71
2022/04/19 11:00:34;;;;;;;1.87;1.10;;;17.80;36.80;;;;;;5041468;28;20293;-70
2022/04/19 11:03:05;;;;;;;2.00;0.97;;;17.80;36.50;;;;;;5048369;28;20270;-71
2022/04/19 11:05:53;;;;;;;2.97;1.10;;;17.80;37.40;;;;;;5043182;28;20283;-71
2022/04/19 11:08:25;;;;;;;2.77;1.00;;;17.80;36.10;;;;;;5047776;28;20298;-70
2022/04/19 11:10:52;;;;;;;2.50;0.90;;;17.80;36.70;;;;;;5042207;28;20292;-70
2022/04/19 11:13:19;;;;;;;2.30;0.90;;;17.80;36.60;;;;;;5046424;28;20816;-70
2022/04/19 11:16:05;;;;;;;2.50;1.10;;;17.80;37.00;;;;;;5043488;28;20294;-70
2022/04/19 11:18:53;;;;;;;3.20;1.13;;;17.90;37.20;;;;;;5033571;28;20639;-70
2022/04/19 11:22:01;;;;;;;3.00;1.10;;;17.90;37.70;;;;;;5045125;28;20301;-70
2022/04/19 11:25:01;;;;;;;1.67;1.20;;;18.00;37.90;;;;;;5042123;28;20342;-70
2022/04/19 11:27:54;;;;;;;3.43;1.20;;;18.10;39.10;;;;;;5045295;28;20314;-70
2022/04/19 11:30:20;;;;;;;3.03;1.20;;;18.30;39.30;;;;;;5043862;28;20287;-70
2022/04/19 11:32:55;;;;;;;4.37;1.07;;;18.40;39.00;;;;;;5044646;28;20279;-70
2022/04/19 11:35:21;;;;;;;2.78;1.00;;;18.50;38.60;;;;;;5041000;28;20409;-70
2022/04/19 11:37:47;;;;;;;1.50;0.90;;;18.50;38.20;;;;;;5039998;28;20518;-70
2022/04/19 11:48:41;;;;;;;1.70;0.82;;;18.60;37.30;;;;;;5040788;28;20353;-70
2022/04/19 11:51:11;;;;;;;2.60;1.43;;;18.60;37.90;;;;;;5022924;28;20033;-70
2022/04/19 11:53:37;;;;;;;6.77;0.90;;;18.50;38.20;;;;;;5028991;28;20340;-70
2022/04/19 11:56:04;;;;;;;1.93;1.00;;;18.50;39.30;;;;;;5023969;28;20275;-70
2022/04/19 11:58:31;;;;;;;1.47;1.00;;;18.60;39.80;;;;;;5027394;28;20635;-70
2022/04/19 12:01:03;;;;;;;2.23;0.87;;;18.60;38.90;;;;;;5025568;28;20314;-70
2022/04/19 12:03:39;;;;;;;2.23;0.90;;;18.70;39.50;;;;;;5041597;28;20275;-71
2022/04/19 12:06:10;;;;;;;2.33;1.40;;;18.70;39.40;;;;;;5041571;28;20279;-71
2022/04/19 12:08:41;;;;;;;1.83;1.23;;;18.80;38.50;;;;;;5057433;28;20287;-71
2022/04/19 12:11:13;;;;;;;4.97;1.37;;;18.80;38.10;;;;;;5032248;28;20279;-70
2022/04/19 12:13:41;;;;;;;2.00;1.00;;;18.70;37.60;;;;;;5039080;28;20848;-70
2022/04/19 12:16:48;;;;;;;4.10;1.33;;;18.60;38.60;;;;;;5030882;28;20292;-70
2022/04/19 12:19:14;;;;;;;2.53;1.27;;;18.70;38.10;;;;;;5041744;28;20369;-70
2022/04/19 12:21:40;;;;;;;3.17;1.40;;;18.70;38.60;;;;;;5049304;28;20357;-70
2022/04/19 12:24:08;;;;;;;3.47;1.40;;;18.70;40.10;;;;;;5041389;28;20249;-70
2022/04/19 12:26:35;;;;;;;2.70;1.80;;;18.90;38.00;;;;;;5042657;28;20830;-71
2022/04/19 12:29:27;;;;;;;2.70;1.53;;;18.90;38.50;;;;;;5038651;28;20710;-71
2022/04/19 12:31:57;;;;;;;3.53;2.10;;;18.90;38.80;;;;;;5012615;28;20289;-71
2022/04/19 12:34:36;;;;;;;3.63;1.60;;;18.90;39.20;;;;;;5042719;28;20398;-70
2022/04/19 12:37:10;;;;;;;2.97;1.53;;;19.00;39.40;;;;;;5034894;28;20376;-70
2022/04/19 12:39:36;;;;;;;3.10;2.50;;;19.10;39.40;;;;;;5033261;28;20286;-72
2022/04/19 12:42:11;;;;;;;3.47;2.00;;;19.10;38.70;;;;;;5016710;28;20578;-72
2022/04/19 12:44:39;;;;;;;5.60;1.77;;;19.10;39.00;;;;;;5022048;28;20314;-71
2022/04/19 12:47:14;;;;;;;2.60;1.90;;;19.10;39.40;;;;;;5006691;28;20331;-70
2022/04/19 12:49:45;;;;;;;4.23;1.60;;;19.10;38.70;;;;;;5019843;28;20636;-70
2022/04/19 12:52:12;;;;;;;3.50;1.80;;;19.20;38.20;;;;;;5026929;28;20286;-70
2022/04/19 12:54:39;;;;;;;3.73;1.80;;;19.20;38.20;;;;;;5032369;28;20274;-70
2022/04/19 12:57:12;;;;;;;6.33;2.30;;;19.20;38.90;;;;;;5021197;28;20275;-70
2022/04/19 12:59:38;;;;;;;4.70;2.03;;;19.20;38.20;;;;;;5044064;28;20290;-70
2022/04/19 13:02:04;;;;;;;2.77;1.97;;;19.20;38.90;;;;;;5011721;28;20729;-70
2022/04/19 13:04:30;;;;;;;4.63;2.00;;;19.30;38.80;;;;;;5023363;28;20324;-70
2022/04/19 13:12:26;;;;;;;3.30;1.67;;;19.40;37.50;;;;;;5037286;28;20502;-70
2022/04/19 13:15:00;;;;;;;2.20;1.63;;;19.30;37.80;;;;;;5041584;28;20040;-70
2022/04/19 13:17:30;;;;;;;3.43;1.50;;;19.30;38.10;;;;;;5048798;28;20723;-70
2022/04/19 13:19:56;;;;;;;3.67;1.50;;;19.30;38.70;;;;;;5038806;28;20299;-70
2022/04/19 13:22:22;;;;;;;5.03;1.97;;;19.30;39.00;;;;;;5014608;28;20363;-71
2022/04/19 13:24:49;;;;;;;3.07;2.20;;;19.40;38.00;;;;;;5036328;28;20079;-71
2022/04/19 13:27:16;;;;;;;3.17;1.80;;;19.40;37.40;;;;;;5021460;28;20051;-71
2022/04/19 13:29:43;;;;;;;7.30;2.10;;;19.30;38.10;;;;;;5023381;28;20314;-71
2022/04/19 13:32:10;;;;;;;4.30;2.17;;;19.40;38.10;;;;;;5033109;28;20402;-71
2022/04/19 13:34:36;;;;;;;3.57;2.17;;;19.30;39.00;;;;;;5037499;28;20767;-71
2022/04/19 13:37:03;;;;;;;3.13;1.83;;;19.40;39.10;;;;;;5021905;28;20344;-71
2022/04/19 13:39:29;;;;;;;3.63;1.20;;;19.40;39.30;;;;;;5039807;28;20437;-71